createdAt,value
2023-05-04T00:01:35.732Z,100261.46
2023-05-04T00:04:37.655Z,100259.90
2023-05-04T00:07:39.520Z,100259.02
2023-05-04T00:10:41.272Z,100259.21
2023-05-04T00:13:43.082Z,100257.30
2023-05-04T00:16:44.881Z,100256.97
2023-05-04T00:19:46.553Z,100252.67
2023-05-04T00:22:48.282Z,100252.20
2023-05-04T00:25:49.896Z,100252.67
2023-05-04T00:28:51.647Z,100256.02
2023-05-04T00:31:53.312Z,100256.64
2023-05-04T00:34:55.211Z,100255.55
2023-05-04T00:37:57.145Z,100252.52
2023-05-04T00:40:58.928Z,100247.11
2023-05-04T00:44:00.763Z,100246.36
2023-05-04T00:47:02.864Z,100245.77
2023-05-04T00:50:05.445Z,100247.36
2023-05-04T00:53:11.178Z,100242.57
2023-05-04T00:56:13.926Z,100241.05
2023-05-04T00:59:15.646Z,100243.27
2023-05-04T01:02:17.343Z,100242.54
2023-05-04T01:05:19.072Z,100238.05
2023-05-04T01:08:24.086Z,100236.46
2023-05-04T01:11:44.457Z,100235.64
2023-05-04T01:14:47.126Z,100238.05
2023-05-04T01:17:49.049Z,100239.30
2023-05-04T01:20:50.759Z,100235.10
2023-05-04T01:23:52.556Z,100237.48
2023-05-04T01:27:04.600Z,100238.27
2023-05-04T01:30:13.132Z,100236.14
2023-05-04T01:33:15.697Z,100237.69
2023-05-04T01:36:19.467Z,100234.30
2023-05-04T01:39:21.278Z,100237.55
2023-05-04T01:42:22.944Z,100237.65
2023-05-04T01:45:24.647Z,100234.98
2023-05-04T01:48:28.221Z,100230.52
2023-05-04T01:51:30.086Z,100227.59
2023-05-04T01:54:31.759Z,100224.98
2023-05-04T01:57:33.968Z,100224.28
2023-05-04T02:00:35.829Z,100224.57
2023-05-04T02:03:37.620Z,100229.68
2023-05-04T02:06:39.503Z,100223.04
2023-05-04T02:09:41.293Z,100220.74
2023-05-04T02:12:43.192Z,100223.31
2023-05-04T02:15:45.016Z,100222.73
2023-05-04T02:18:47.059Z,100223.00
2023-05-04T02:21:49.203Z,100222.60
2023-05-04T02:24:50.885Z,100222.41
2023-05-04T02:27:52.540Z,100217.67
2023-05-04T02:30:54.227Z,100215.59
2023-05-04T02:33:56.112Z,100211.58
2023-05-04T02:36:58.010Z,100212.27
2023-05-04T02:39:59.617Z,100213.15
2023-05-04T02:43:01.398Z,100216.29
2023-05-04T02:46:03.627Z,100216.52
2023-05-04T02:49:05.623Z,100212.15
2023-05-04T02:52:07.458Z,100211.93
2023-05-04T02:55:10.029Z,100215.89
2023-05-04T02:58:11.620Z,100211.84
2023-05-04T03:01:13.472Z,100215.59
2023-05-04T03:04:15.212Z,100213.70
2023-05-04T03:07:17.220Z,100211.23
2023-05-04T03:10:19.606Z,100207.36
2023-05-04T03:13:21.374Z,100208.58
2023-05-04T03:16:23.224Z,100209.80
2023-05-04T03:19:25.238Z,100205.02
2023-05-04T03:22:27.281Z,100209.67
2023-05-04T03:25:29.042Z,100210.08
2023-05-04T03:28:30.728Z,100218.20
2023-05-04T03:31:32.764Z,100220.86
2023-05-04T03:34:34.553Z,100223.35
2023-05-04T03:37:36.311Z,100227.54
2023-05-04T03:40:38.288Z,100227.34
2023-05-04T03:43:40.396Z,100231.05
2023-05-04T03:46:42.147Z,100233.94
2023-05-04T03:49:44.224Z,100236.09
2023-05-04T03:52:46.172Z,100231.85
2023-05-04T03:55:48.091Z,100235.48
2023-05-04T03:58:50.041Z,100234.66
2023-05-04T04:01:51.946Z,100236.19
2023-05-04T04:04:53.741Z,100241.50
2023-05-04T04:07:55.425Z,100240.48
2023-05-04T04:10:58.372Z,100241.21
2023-05-04T04:14:00.285Z,100239.90
2023-05-04T04:17:02.060Z,100237.14
2023-05-04T04:20:04.401Z,100241.21
2023-05-04T04:23:06.705Z,100243.00
2023-05-04T04:26:08.874Z,100242.98
2023-05-04T04:29:10.727Z,100241.48
2023-05-04T04:32:12.736Z,100238.05
2023-05-04T04:35:14.983Z,100239.16
2023-05-04T04:38:16.792Z,100243.91
2023-05-04T04:41:18.424Z,100248.06
2023-05-04T04:44:20.272Z,100250.24
2023-05-04T04:47:22.073Z,100254.02
2023-05-04T04:50:23.810Z,100256.39
2023-05-04T04:53:26.343Z,100261.98
2023-05-04T04:56:28.421Z,100263.54
2023-05-04T04:59:30.038Z,100265.59
2023-05-04T05:02:31.938Z,100267.20
2023-05-04T05:05:34.112Z,100269.20
2023-05-04T05:08:35.960Z,100270.88
2023-05-04T05:11:37.902Z,100268.23
2023-05-04T05:14:43.473Z,100270.10
2023-05-04T05:17:45.475Z,100266.67
2023-05-04T05:20:47.540Z,100266.17
2023-05-04T05:23:49.447Z,100262.41
2023-05-04T05:26:51.367Z,100265.93
2023-05-04T05:29:53.002Z,100271.62
2023-05-04T05:32:54.889Z,100273.61
2023-05-04T05:35:57.166Z,100275.20
2023-05-04T05:38:59.115Z,100275.94
2023-05-04T05:42:00.745Z,100266.94
2023-05-04T05:45:02.755Z,100275.46
2023-05-04T05:48:04.709Z,100274.90
2023-05-04T05:51:06.655Z,100271.31
2023-05-04T05:54:09.211Z,100265.65
2023-05-04T05:57:11.736Z,100271.55
2023-05-04T06:00:13.901Z,100270.48
2023-05-04T06:03:15.855Z,100273.02
2023-05-04T06:06:17.911Z,100275.00
2023-05-04T06:09:19.965Z,100276.17
2023-05-04T06:12:21.682Z,100277.04
2023-05-04T06:15:23.475Z,100276.08
2023-05-04T06:18:25.318Z,100276.86
2023-05-04T06:21:27.356Z,100281.37
2023-05-04T06:24:30.553Z,100280.36
2023-05-04T06:27:33.406Z,100280.25
2023-05-04T06:30:35.743Z,100281.01
2023-05-04T06:33:37.720Z,100281.52
2023-05-04T06:36:39.409Z,100283.98
2023-05-04T06:39:41.617Z,100278.71
2023-05-04T06:42:43.434Z,100278.14
2023-05-04T06:45:45.218Z,100278.61
2023-05-04T06:48:47.070Z,100278.61
2023-05-04T06:51:48.699Z,100274.47
2023-05-04T06:54:50.553Z,100276.27
2023-05-04T06:57:52.484Z,100276.20
2023-05-04T07:00:54.886Z,100276.75
2023-05-04T07:03:57.047Z,100273.90
2023-05-04T07:06:59.533Z,100272.95
2023-05-04T07:10:01.349Z,100272.17
2023-05-04T07:13:03.260Z,100272.68
2023-05-04T07:16:07.535Z,100271.00
2023-05-04T07:19:09.353Z,100272.27
2023-05-04T07:22:10.946Z,100272.19
2023-05-04T07:25:12.861Z,100271.33
2023-05-04T07:28:14.621Z,100273.17
2023-05-04T07:31:16.375Z,100271.41
2023-05-04T07:34:19.183Z,100270.81
2023-05-04T07:37:21.018Z,100270.05
2023-05-04T07:40:22.744Z,100268.13
2023-05-04T07:43:24.420Z,100271.41
2023-05-04T07:46:26.149Z,100268.29
2023-05-04T07:49:27.937Z,100266.39
2023-05-04T07:52:29.777Z,100268.80
2023-05-04T07:55:31.627Z,100270.79
2023-05-04T07:58:33.336Z,100272.73
2023-05-04T08:01:35.135Z,100271.52
2023-05-04T08:04:36.976Z,100272.16
2023-05-04T08:07:38.994Z,100271.55
2023-05-04T08:10:40.767Z,100272.29
2023-05-04T08:13:42.502Z,100275.98
2023-05-04T08:16:44.655Z,100276.92
2023-05-04T08:19:46.596Z,100271.26
2023-05-04T08:22:48.428Z,100274.40
2023-05-04T08:25:50.244Z,100269.73
2023-05-04T08:28:52.132Z,100272.65
2023-05-04T08:31:56.285Z,100267.75
2023-05-04T08:34:58.559Z,100266.43
2023-05-04T08:38:01.017Z,100270.35
2023-05-04T08:41:06.380Z,100277.26
2023-05-04T08:44:10.790Z,100272.46
2023-05-04T08:47:12.453Z,100271.06
2023-05-04T08:50:14.413Z,100275.11
2023-05-04T08:53:19.879Z,100280.11
2023-05-04T08:56:22.951Z,100272.89
2023-05-04T08:59:25.415Z,100272.87
2023-05-04T09:02:27.952Z,100270.67
2023-05-04T09:05:29.665Z,100276.73
2023-05-04T09:08:31.398Z,100275.20
2023-05-04T09:11:33.091Z,100270.08
2023-05-04T09:14:37.973Z,100263.77
2023-05-04T09:17:50.893Z,100265.16
2023-05-04T09:20:58.553Z,100262.92
2023-05-04T09:24:00.424Z,100258.98
2023-05-04T09:27:10.286Z,100259.43
2023-05-04T09:30:12.749Z,100261.94
2023-05-04T09:33:17.332Z,100258.70
2023-05-04T09:36:19.821Z,100261.20
2023-05-04T09:39:21.873Z,100260.30
2023-05-04T09:42:25.115Z,100260.98
2023-05-04T09:45:37.969Z,100260.59
2023-05-04T09:48:50.696Z,100260.56
2023-05-04T09:51:52.528Z,100256.77
2023-05-04T09:54:54.730Z,100255.88
2023-05-04T09:57:56.632Z,100248.63
2023-05-04T10:01:01.104Z,100246.75
2023-05-04T10:04:02.915Z,100237.71
2023-05-04T10:07:05.350Z,100234.48
2023-05-04T10:10:08.265Z,100239.12
2023-05-04T10:13:10.239Z,100239.36
2023-05-04T10:16:27.832Z,100241.39
2023-05-04T10:19:49.224Z,100228.78
2023-05-04T10:23:28.282Z,100232.39
2023-05-04T10:26:32.744Z,100231.47
2023-05-04T10:29:35.144Z,100226.77
2023-05-04T10:32:36.902Z,100229.27
2023-05-04T10:35:50.713Z,100225.35
2023-05-04T10:38:52.710Z,100221.28
2023-05-04T10:42:04.223Z,100220.40
2023-05-04T10:45:06.709Z,100223.54
2023-05-04T10:48:09.514Z,100212.31
2023-05-04T10:51:18.706Z,100217.98
2023-05-04T10:54:20.607Z,100223.22
2023-05-04T10:57:22.218Z,100219.40
2023-05-04T11:00:36.552Z,100214.65
2023-05-04T11:03:39.770Z,100214.78
2023-05-04T11:06:41.576Z,100213.16
2023-05-04T11:09:43.374Z,100210.84
2023-05-04T11:12:45.111Z,100209.21
2023-05-04T11:15:50.475Z,100210.00
2023-05-04T11:18:53.058Z,100204.36
2023-05-04T11:21:54.656Z,100200.03
2023-05-04T11:24:56.476Z,100196.14
2023-05-04T11:27:58.231Z,100197.73
2023-05-04T11:31:00.173Z,100195.69
2023-05-04T11:34:03.767Z,100187.08
2023-05-04T11:37:05.478Z,100184.52
2023-05-04T11:40:11.639Z,100179.67
2023-05-04T11:43:14.165Z,100174.74
2023-05-04T11:46:16.884Z,100173.89
2023-05-04T11:49:18.951Z,100173.47
2023-05-04T11:52:23.128Z,100169.92
2023-05-04T11:55:26.532Z,100167.16
2023-05-04T11:58:28.277Z,100167.35
2023-05-04T12:01:35.051Z,100163.75
2023-05-04T12:04:36.734Z,100164.11
2023-05-04T12:07:38.468Z,100163.04
2023-05-04T12:10:40.132Z,100165.32
2023-05-04T12:13:43.607Z,100169.29
2023-05-04T12:16:54.220Z,100159.81
2023-05-04T12:19:57.234Z,100153.64
2023-05-04T12:23:05.918Z,100149.63
2023-05-04T12:26:09.023Z,100143.05
2023-05-04T12:29:10.845Z,100141.48
2023-05-04T12:32:12.943Z,100143.61
2023-05-04T12:35:14.672Z,100136.46
2023-05-04T12:38:16.319Z,100134.34
2023-05-04T12:41:18.040Z,100136.45
2023-05-04T12:44:19.759Z,100132.88
2023-05-04T12:47:21.995Z,100137.59
2023-05-04T12:50:23.654Z,100132.35
2023-05-04T12:53:27.109Z,100134.03
2023-05-04T12:56:29.146Z,100131.39
2023-05-04T12:59:30.972Z,100129.05
2023-05-04T13:02:32.938Z,100127.88
2023-05-04T13:05:34.862Z,100118.88
2023-05-04T13:08:37.028Z,100118.80
2023-05-04T13:11:39.010Z,100120.50
2023-05-04T13:14:40.645Z,100123.71
2023-05-04T13:17:42.508Z,100120.41
2023-05-04T13:20:44.275Z,100116.77
2023-05-04T13:23:46.148Z,100111.96
2023-05-04T13:26:47.861Z,100106.98
2023-05-04T13:29:49.732Z,100105.71
2023-05-04T13:32:51.629Z,100098.55
2023-05-04T13:35:53.362Z,100097.38
2023-05-04T13:38:55.140Z,100092.42
2023-05-04T13:41:57.785Z,100091.49
2023-05-04T13:45:00.066Z,100087.54
2023-05-04T13:48:01.923Z,100081.50
2023-05-04T13:51:03.939Z,100078.21
2023-05-04T13:54:06.017Z,100070.88
2023-05-04T13:57:07.718Z,100069.65
2023-05-04T14:00:10.135Z,100068.27
2023-05-04T14:03:11.815Z,100061.66
2023-05-04T14:06:13.433Z,100056.07
2023-05-04T14:09:15.161Z,100053.06
2023-05-04T14:12:16.965Z,100055.42
2023-05-04T14:15:18.832Z,100050.39
2023-05-04T14:18:20.573Z,100046.17
2023-05-04T14:21:22.340Z,100043.32
2023-05-04T14:24:24.688Z,100045.92
2023-05-04T14:27:26.630Z,100043.34
2023-05-04T14:30:28.411Z,100042.19
2023-05-04T14:33:30.372Z,100042.04
2023-05-04T14:36:32.216Z,100037.54
2023-05-04T14:39:34.110Z,100039.83
2023-05-04T14:42:36.130Z,100041.17
2023-05-04T14:45:37.962Z,100038.59
2023-05-04T14:48:40.147Z,100042.65
2023-05-04T14:51:41.838Z,100036.85
2023-05-04T14:54:43.467Z,100037.83
2023-05-04T14:57:45.593Z,100035.15
2023-05-04T15:00:47.776Z,100034.65
2023-05-04T15:03:49.594Z,100029.97
2023-05-04T15:06:51.311Z,100027.86
2023-05-04T15:09:53.046Z,100030.36
2023-05-04T15:12:55.210Z,100030.63
2023-05-04T15:15:58.161Z,100021.48
2023-05-04T15:19:00.212Z,100021.75
2023-05-04T15:22:02.126Z,100021.89
2023-05-04T15:25:04.186Z,100019.64
2023-05-04T15:28:09.353Z,100019.39
2023-05-04T15:31:11.262Z,100016.00
2023-05-04T15:34:13.032Z,100015.32
2023-05-04T15:37:14.854Z,100012.11
2023-05-04T15:40:16.698Z,100014.43
2023-05-04T15:43:18.468Z,100012.84
2023-05-04T15:46:20.422Z,100009.13
2023-05-04T15:49:22.074Z,100005.89
2023-05-04T15:52:24.345Z,100007.49
2023-05-04T15:55:26.679Z,100003.19
2023-05-04T15:58:28.438Z,100002.77
2023-05-04T16:01:30.095Z,100000.69
2023-05-04T16:04:31.746Z,99998.48
2023-05-04T16:07:34.214Z,99996.90
2023-05-04T16:10:36.006Z,99999.86
2023-05-04T16:13:38.227Z,99999.54
2023-05-04T16:16:39.875Z,99999.58
2023-05-04T16:19:42.005Z,100000.13
2023-05-04T16:22:43.832Z,99994.02
2023-05-04T16:25:45.656Z,99993.74
2023-05-04T16:28:47.296Z,99991.60
2023-05-04T16:31:48.953Z,99987.90
2023-05-04T16:34:51.019Z,99991.50
2023-05-04T16:37:53.173Z,99989.11
2023-05-04T16:40:55.345Z,99987.02
2023-05-04T16:43:57.462Z,99982.30
2023-05-04T16:46:59.917Z,99984.98
2023-05-04T16:50:01.964Z,99983.72
2023-05-04T16:53:03.914Z,99988.20
2023-05-04T16:56:06.693Z,99987.54
2023-05-04T16:59:08.453Z,99987.95
2023-05-04T17:02:10.925Z,99991.14
2023-05-04T17:05:12.828Z,99988.41
2023-05-04T17:08:14.865Z,99991.46
2023-05-04T17:11:16.474Z,99990.39
2023-05-04T17:14:18.156Z,99988.98
2023-05-04T17:17:20.029Z,99987.33
2023-05-04T17:20:22.049Z,99987.59
2023-05-04T17:23:23.863Z,99984.42
2023-05-04T17:26:26.079Z,99977.05
2023-05-04T17:29:28.571Z,99977.54
2023-05-04T17:32:30.665Z,99977.46
2023-05-04T17:35:32.584Z,99983.95
2023-05-04T17:38:34.288Z,99984.41
2023-05-04T17:41:35.915Z,99984.27
2023-05-04T17:44:37.631Z,99983.60
2023-05-04T17:47:39.409Z,99986.75
2023-05-04T17:50:41.141Z,99992.94
2023-05-04T17:53:43.083Z,100001.58
2023-05-04T17:56:44.749Z,100005.25
2023-05-04T17:59:46.422Z,100009.25
2023-05-04T18:02:48.270Z,100006.63
2023-05-04T18:05:52.505Z,100007.02
2023-05-04T18:08:54.340Z,100013.76
2023-05-04T18:11:56.028Z,100018.45
2023-05-04T18:14:57.729Z,100021.08
2023-05-04T18:17:59.934Z,100027.62
2023-05-04T18:21:01.700Z,100029.25
2023-05-04T18:24:07.022Z,100034.45
2023-05-04T18:27:08.671Z,100038.66
2023-05-04T18:30:10.826Z,100044.02
2023-05-04T18:33:12.519Z,100045.02
2023-05-04T18:36:14.306Z,100048.40
2023-05-04T18:39:15.946Z,100051.44
2023-05-04T18:42:17.694Z,100056.32
2023-05-04T18:45:19.400Z,100056.45
2023-05-04T18:48:21.222Z,100059.73
2023-05-04T18:51:22.858Z,100056.50
2023-05-04T18:54:24.512Z,100059.21
2023-05-04T18:57:27.267Z,100063.83
2023-05-04T19:00:30.599Z,100062.64
2023-05-04T19:03:32.551Z,100062.25
2023-05-04T19:06:34.499Z,100061.28
2023-05-04T19:09:36.622Z,100062.48
2023-05-04T19:12:38.270Z,100060.83
2023-05-04T19:15:39.970Z,100061.20
2023-05-04T19:18:42.093Z,100056.54
2023-05-04T19:21:43.716Z,100054.59
2023-05-04T19:24:49.566Z,100056.13
2023-05-04T19:27:51.507Z,100052.30
2023-05-04T19:30:53.535Z,100049.96
2023-05-04T19:33:55.883Z,100046.98
2023-05-04T19:36:58.001Z,100046.13
2023-05-04T19:40:23.015Z,100046.94
2023-05-04T19:43:25.033Z,100052.77
2023-05-04T19:46:26.839Z,100052.85
2023-05-04T19:49:28.826Z,100053.39
2023-05-04T19:52:30.937Z,100053.39
2023-05-04T19:55:33.277Z,100048.15
2023-05-04T19:58:35.494Z,100045.05
2023-05-04T20:01:38.649Z,100040.71
2023-05-04T20:04:40.498Z,100043.31
2023-05-04T20:07:42.671Z,100042.00
2023-05-04T20:10:44.871Z,100037.90
2023-05-04T20:13:49.070Z,100033.16
2023-05-04T20:16:50.891Z,100031.80
2023-05-04T20:19:52.863Z,100030.19
2023-05-04T20:22:54.572Z,100032.07
2023-05-04T20:25:56.456Z,100025.88
2023-05-04T20:28:58.676Z,100023.91
2023-05-04T20:32:01.254Z,100022.95
2023-05-04T20:35:03.223Z,100021.14
2023-05-04T20:38:05.078Z,100021.52
2023-05-04T20:41:07.824Z,100021.98
2023-05-04T20:44:09.603Z,100021.65
2023-05-04T20:47:11.441Z,100022.95
2023-05-04T20:50:13.185Z,100025.60
2023-05-04T20:53:14.980Z,100023.67
2023-05-04T20:56:16.721Z,100023.77
2023-05-04T20:59:18.678Z,100021.15
2023-05-04T21:02:20.800Z,100019.06
2023-05-04T21:05:22.725Z,100016.79
2023-05-04T21:08:25.247Z,100019.50
2023-05-04T21:11:27.129Z,100017.17
2023-05-04T21:14:29.269Z,100015.61
2023-05-04T21:17:31.621Z,100012.58
2023-05-04T21:20:36.672Z,100018.02
2023-05-04T21:23:38.469Z,100008.09
2023-05-04T21:26:41.080Z,100008.09
2023-05-04T21:29:42.917Z,100005.46
2023-05-04T21:32:44.703Z,100002.77
2023-05-04T21:35:46.452Z,100003.83
2023-05-04T21:38:48.200Z,100001.40
2023-05-04T21:41:50.185Z,99998.30
2023-05-04T21:44:55.789Z,99999.80
2023-05-04T21:47:58.334Z,100000.00
2023-05-04T21:51:00.216Z,99997.00
2023-05-04T21:54:02.621Z,99997.21
2023-05-04T21:57:04.431Z,99997.51
2023-05-04T22:00:06.962Z,99998.87
2023-05-04T22:03:09.118Z,100000.55
2023-05-04T22:06:11.029Z,99998.30
2023-05-04T22:09:13.342Z,99997.02
2023-05-04T22:12:15.418Z,99998.89
2023-05-04T22:15:17.271Z,99998.54
2023-05-04T22:18:19.607Z,99993.77
2023-05-04T22:21:24.612Z,99993.55
2023-05-04T22:24:26.923Z,99993.27
2023-05-04T22:27:29.050Z,99992.61
2023-05-04T22:30:31.347Z,99986.87
2023-05-04T22:33:33.091Z,99982.05
2023-05-04T22:36:34.825Z,99980.12
2023-05-04T22:39:37.181Z,99977.14
2023-05-04T22:42:38.885Z,99985.27
2023-05-04T22:45:40.766Z,99988.45
2023-05-04T22:48:45.911Z,99985.01
2023-05-04T22:51:47.613Z,99985.52
2023-05-04T22:54:50.086Z,99980.09
2023-05-04T22:57:51.922Z,99975.92
2023-05-04T23:00:53.649Z,99972.63
2023-05-04T23:03:55.449Z,99972.00
2023-05-04T23:06:57.140Z,99973.12
2023-05-04T23:09:58.888Z,99973.77
2023-05-04T23:13:01.028Z,99970.89
2023-05-04T23:16:03.211Z,99965.04
2023-05-04T23:19:05.502Z,99961.27
2023-05-04T23:22:08.399Z,99965.39
2023-05-04T23:25:10.167Z,99962.03
2023-05-04T23:28:12.045Z,99956.02
2023-05-04T23:31:13.862Z,99956.23
2023-05-04T23:34:15.806Z,99952.55
2023-05-04T23:37:17.604Z,99951.05
2023-05-04T23:40:19.993Z,99945.41
2023-05-04T23:43:22.031Z,99945.84
2023-05-04T23:46:23.891Z,99943.83
2023-05-04T23:49:25.800Z,99948.58
2023-05-04T23:52:27.503Z,99947.38
2023-05-04T23:55:29.808Z,99947.77
2023-05-04T23:58:32.888Z,99948.13
